KCRG/CRG METAR and TAF weather

Enter ICAO airport designator
Station Type Date Time Source
KCRG METAR 2021/07/29 07:53 UTC NOAA

KCRG 290753Z AUTO 17003KT 9SM SCT100 24/23 A2999 RMK AO2 SLP153 T02440233


Station Type Date Time Source
KCRG Decoded METAR 2021/07/29 07:53 UTC NOAA

JACKSONVILLE CRAIG MUN, FL, United States (KCRG) 30-20N 81-31W 13M
Jul 29, 2021 - 03:53 AM EDT / 2021.07.29 0753 UTC
Wind: from the S (170 degrees) at 3 MPH (3 KT):0
Visibility: 9 mile(s):0
Sky conditions: partly cloudy
Temperature: 75.9 F (24.4 C)
Dew Point: 73.9 F (23.3 C)
Relative Humidity: 93%
Pressure (altimeter): 29.99 in. Hg (1015 hPa)
ob: KCRG 290753Z AUTO 17003KT 9SM SCT100 24/23 A2999 RMK AO2 SLP153 T02440233
cycle: 8

Station Type Date Time Source
KCRG TAF 2021/07/29 06:22 UTC NOAA

TAF KCRG 290520Z 2906/3006 23004KT P6SM BKN120 BKN250
FM291400 31006KT P6SM SCT030 BKN250
FM291800 07008KT P6SM VCTS SCT035CB BKN060
FM292200 10005KT P6SM SCT040 BKN120

Example: see airport list